createdAt,value
2022-10-26T00:01:44.599Z,6.82
2022-10-26T00:04:10.965Z,11.63
2022-10-26T00:06:37.427Z,6.30
2022-10-26T00:09:03.805Z,7.72
2022-10-26T00:11:30.142Z,9.45
2022-10-26T00:13:56.489Z,6.45
2022-10-26T00:16:27.109Z,9.05
2022-10-26T00:18:53.484Z,8.23
2022-10-26T00:21:19.808Z,7.65
2022-10-26T00:23:46.290Z,7.72
2022-10-26T00:26:12.703Z,10.98
2022-10-26T00:28:39.113Z,10.63
2022-10-26T00:31:06.797Z,10.45
2022-10-26T00:33:33.332Z,13.10
2022-10-26T00:35:59.932Z,8.00
2022-10-26T00:38:27.301Z,9.05
2022-10-26T00:40:53.685Z,7.63
2022-10-26T00:43:20.036Z,8.00
2022-10-26T00:45:46.796Z,7.90
2022-10-26T00:48:22.180Z,11.70
2022-10-26T00:50:48.871Z,7.32
2022-10-26T00:53:15.721Z,9.73
2022-10-26T00:55:44.703Z,10.85
2022-10-26T00:58:11.809Z,9.10
2022-10-26T01:00:39.157Z,8.23
2022-10-26T01:03:06.377Z,9.45
2022-10-26T01:05:34.212Z,10.73
2022-10-26T01:08:00.716Z,8.15
2022-10-26T01:10:27.238Z,10.32
2022-10-26T01:12:54.931Z,9.38
2022-10-26T01:15:24.484Z,9.50
2022-10-26T01:17:51.376Z,6.10
2022-10-26T01:20:17.907Z,9.07
2022-10-26T01:22:50.212Z,6.18
2022-10-26T01:25:27.952Z,9.02
2022-10-26T01:27:54.396Z,10.68
2022-10-26T01:30:30.754Z,9.82
2022-10-26T01:33:15.546Z,6.90
2022-10-26T01:35:45.845Z,7.38
2022-10-26T01:38:20.336Z,10.80
2022-10-26T01:40:49.318Z,9.32
2022-10-26T01:43:16.766Z,10.13
2022-10-26T01:45:45.285Z,10.27
2022-10-26T01:48:13.524Z,9.25
2022-10-26T01:50:41.685Z,9.48
2022-10-26T01:53:11.312Z,7.75
2022-10-26T01:55:44.632Z,7.88
2022-10-26T01:58:10.932Z,8.65
2022-10-26T02:00:39.353Z,12.40
2022-10-26T02:03:05.720Z,8.18
2022-10-26T02:05:37.583Z,11.27
2022-10-26T02:08:13.853Z,9.20
2022-10-26T02:10:51.600Z,5.82
2022-10-26T02:13:24.040Z,9.55
2022-10-26T02:15:50.405Z,10.10
2022-10-26T02:18:23.709Z,8.05
2022-10-26T02:20:51.792Z,8.77
2022-10-26T02:23:18.729Z,9.75
2022-10-26T02:25:50.280Z,8.02
2022-10-26T02:28:22.486Z,9.45
2022-10-26T02:30:50.648Z,8.32
2022-10-26T02:33:17.824Z,8.90
2022-10-26T02:35:48.753Z,10.10
2022-10-26T02:38:16.903Z,10.20
2022-10-26T02:40:45.109Z,11.77
2022-10-26T02:43:16.322Z,13.27
2022-10-26T02:45:47.969Z,6.50
2022-10-26T02:48:17.751Z,7.57
2022-10-26T02:50:44.068Z,9.95
2022-10-26T02:53:14.649Z,7.05
2022-10-26T02:55:46.809Z,5.55
2022-10-26T02:58:16.837Z,11.07
2022-10-26T03:00:43.304Z,6.85
2022-10-26T03:03:09.640Z,10.02
2022-10-26T03:05:36.858Z,5.25
2022-10-26T03:08:03.686Z,7.75
2022-10-26T03:10:30.616Z,9.32
2022-10-26T03:12:56.935Z,6.18
2022-10-26T03:15:23.261Z,5.43
2022-10-26T03:17:49.816Z,6.13
2022-10-26T03:20:16.436Z,9.05
2022-10-26T03:22:42.752Z,8.25
2022-10-26T03:27:40.479Z,7.65
2022-10-26T03:30:07.187Z,8.73
2022-10-26T03:32:33.523Z,9.45
2022-10-26T03:34:59.814Z,9.60
2022-10-26T03:37:26.450Z,5.85
2022-10-26T03:39:52.769Z,6.78
2022-10-26T03:42:19.065Z,8.55
2022-10-26T03:44:47.086Z,7.80
2022-10-26T03:47:13.435Z,6.00
2022-10-26T03:49:39.778Z,10.15
2022-10-26T03:52:06.091Z,7.75
2022-10-26T03:54:32.429Z,6.13
2022-10-26T03:56:58.814Z,9.70
2022-10-26T03:59:25.106Z,10.07
2022-10-26T04:01:54.068Z,6.90
2022-10-26T04:04:23.351Z,7.95
2022-10-26T04:06:49.701Z,7.88
2022-10-26T04:09:16.041Z,8.40
2022-10-26T04:11:42.354Z,9.35
2022-10-26T04:14:09.409Z,7.60
2022-10-26T04:16:35.766Z,6.50
2022-10-26T04:19:02.099Z,10.98
2022-10-26T04:21:28.441Z,8.38
2022-10-26T04:23:54.778Z,7.13
2022-10-26T04:26:21.112Z,7.00
2022-10-26T04:28:47.405Z,10.55
2022-10-26T04:31:13.706Z,8.20
2022-10-26T04:33:40.045Z,4.13
2022-10-26T04:36:06.615Z,9.40
2022-10-26T04:38:32.917Z,8.23
2022-10-26T04:40:59.213Z,5.07
2022-10-26T04:43:25.515Z,9.40
2022-10-26T04:45:58.440Z,9.43
2022-10-26T04:50:58.776Z,10.30
2022-10-26T04:53:25.140Z,7.88
2022-10-26T04:55:56.515Z,8.25
2022-10-26T04:58:22.841Z,8.80
2022-10-26T05:00:49.133Z,8.25
2022-10-26T05:03:15.505Z,10.18
2022-10-26T05:05:41.850Z,10.07
2022-10-26T05:08:08.260Z,7.65
2022-10-26T05:10:34.894Z,7.35
2022-10-26T05:13:02.031Z,9.13
2022-10-26T05:15:28.561Z,10.70
2022-10-26T05:17:56.257Z,10.77
2022-10-26T05:20:28.894Z,7.57
2022-10-26T05:25:21.875Z,4.90
2022-10-26T05:27:48.297Z,4.70
2022-10-26T05:30:14.738Z,7.65
2022-10-26T05:32:41.098Z,6.15
2022-10-26T05:35:07.635Z,7.80
2022-10-26T05:37:34.062Z,5.65
2022-10-26T05:40:00.396Z,6.05
2022-10-26T05:42:26.747Z,6.93
2022-10-26T05:44:53.153Z,4.93
2022-10-26T05:47:19.489Z,7.25
2022-10-26T05:49:45.829Z,9.00
2022-10-26T05:52:12.154Z,13.55
2022-10-26T05:54:42.284Z,8.35
2022-10-26T05:57:11.297Z,8.32
2022-10-26T05:59:37.876Z,8.40
2022-10-26T06:02:27.655Z,7.15
2022-10-26T06:04:56.841Z,7.93
2022-10-26T06:07:23.370Z,9.13
2022-10-26T06:09:49.957Z,6.13
2022-10-26T06:12:19.235Z,6.40
2022-10-26T06:14:46.432Z,9.75
2022-10-26T06:17:28.084Z,6.63
2022-10-26T06:20:09.888Z,5.60
2022-10-26T06:22:39.073Z,8.48
2022-10-26T06:25:36.030Z,5.68
2022-10-26T06:28:16.701Z,5.72
2022-10-26T06:30:43.709Z,8.10
2022-10-26T06:33:24.830Z,8.43
2022-10-26T06:35:54.993Z,7.47
2022-10-26T06:38:22.232Z,8.95
2022-10-26T06:40:51.129Z,5.78
2022-10-26T06:43:22.755Z,7.72
2022-10-26T06:45:50.797Z,4.95
2022-10-26T06:48:22.050Z,6.90
2022-10-26T06:50:52.117Z,6.32
2022-10-26T06:53:22.134Z,7.97
2022-10-26T06:55:49.775Z,4.57
2022-10-26T06:58:20.257Z,5.18
2022-10-26T07:00:48.329Z,3.95
2022-10-26T07:03:14.705Z,5.22
2022-10-26T07:05:41.419Z,6.05
2022-10-26T07:08:07.747Z,8.20
2022-10-26T07:10:38.666Z,9.02
2022-10-26T07:13:08.762Z,7.78
2022-10-26T07:15:35.703Z,6.47
2022-10-26T07:18:03.597Z,8.45
2022-10-26T07:20:29.906Z,15.52
2022-10-26T07:22:56.637Z,4.88
2022-10-26T07:25:24.066Z,21.40
2022-10-26T07:27:50.733Z,6.75
2022-10-26T07:30:17.442Z,8.02
2022-10-26T07:32:43.892Z,4.55
2022-10-26T07:35:10.374Z,4.60
2022-10-26T07:37:37.489Z,5.32
2022-10-26T07:40:06.792Z,7.28
2022-10-26T07:42:34.010Z,8.80
2022-10-26T07:45:00.325Z,6.70
2022-10-26T07:47:26.656Z,6.13
2022-10-26T07:49:52.985Z,5.20
2022-10-26T07:52:19.334Z,3.72
2022-10-26T07:54:45.715Z,5.47
2022-10-26T07:57:12.029Z,3.60
2022-10-26T07:59:38.443Z,5.15
2022-10-26T08:02:04.841Z,4.75
2022-10-26T08:04:31.223Z,5.30
2022-10-26T08:06:57.664Z,5.07
2022-10-26T08:09:23.980Z,8.32
2022-10-26T08:11:50.316Z,9.32
2022-10-26T08:14:16.663Z,15.10
2022-10-26T08:16:43.049Z,14.20
2022-10-26T08:19:09.412Z,21.55
2022-10-26T08:21:39.557Z,20.63
2022-10-26T08:24:06.784Z,21.48
2022-10-26T08:26:33.129Z,17.10
2022-10-26T08:28:59.510Z,10.43
2022-10-26T08:31:25.845Z,9.73
2022-10-26T08:33:52.206Z,4.30
2022-10-26T08:36:22.773Z,5.00
2022-10-26T08:38:49.232Z,4.15
2022-10-26T08:41:15.765Z,11.27
2022-10-26T08:43:52.096Z,2.75
2022-10-26T08:46:27.550Z,3.03
2022-10-26T08:49:00.533Z,3.33
2022-10-26T08:51:30.515Z,5.82
2022-10-26T08:53:58.597Z,6.13
2022-10-26T08:56:31.768Z,3.78
2022-10-26T08:59:12.069Z,6.80
2022-10-26T09:01:38.553Z,3.97
2022-10-26T09:04:09.257Z,6.45
2022-10-26T09:06:48.476Z,4.50
2022-10-26T09:09:21.334Z,5.10
2022-10-26T09:11:54.184Z,3.83
2022-10-26T09:14:29.529Z,5.55
2022-10-26T09:17:14.590Z,4.15
2022-10-26T09:19:56.176Z,4.55
2022-10-26T09:22:26.801Z,7.00
2022-10-26T09:24:54.628Z,8.60
2022-10-26T09:27:26.608Z,5.65
2022-10-26T09:29:53.710Z,6.47
2022-10-26T09:32:21.409Z,6.72
2022-10-26T09:34:52.312Z,6.68
2022-10-26T09:37:38.895Z,3.25
2022-10-26T09:40:09.353Z,5.35
2022-10-26T09:42:35.630Z,10.35
2022-10-26T09:45:06.222Z,6.03
2022-10-26T09:47:39.323Z,7.03
2022-10-26T09:50:24.906Z,6.90
2022-10-26T09:52:51.503Z,4.88
2022-10-26T09:55:18.796Z,5.78
2022-10-26T09:57:46.257Z,7.70
2022-10-26T10:00:14.030Z,6.70
2022-10-26T10:02:44.391Z,10.70
2022-10-26T10:05:56.385Z,4.85
2022-10-26T10:08:23.709Z,7.32
2022-10-26T10:11:09.444Z,9.90
2022-10-26T10:13:36.865Z,10.40
2022-10-26T10:16:08.082Z,6.70
2022-10-26T10:18:35.091Z,4.10
2022-10-26T10:21:01.730Z,4.82
2022-10-26T10:23:29.625Z,4.85
2022-10-26T10:26:02.022Z,5.97
2022-10-26T10:28:29.125Z,4.25
2022-10-26T10:30:59.289Z,5.35
2022-10-26T10:33:33.668Z,7.45
2022-10-26T10:36:00.607Z,9.60
2022-10-26T10:38:27.128Z,7.03
2022-10-26T10:40:58.038Z,5.75
2022-10-26T10:43:27.120Z,10.00
2022-10-26T10:45:57.197Z,4.82
2022-10-26T10:48:27.412Z,6.05
2022-10-26T10:50:58.506Z,9.15
2022-10-26T10:53:30.955Z,9.48
2022-10-26T10:56:04.377Z,7.45
2022-10-26T10:58:48.026Z,9.98
2022-10-26T11:01:16.522Z,9.85
2022-10-26T11:03:43.374Z,4.75
2022-10-26T11:06:17.441Z,5.18
2022-10-26T11:09:00.163Z,7.60
2022-10-26T11:11:45.733Z,8.57
2022-10-26T11:14:20.171Z,9.88
2022-10-26T11:16:48.733Z,5.85
2022-10-26T11:19:24.161Z,5.80
2022-10-26T11:21:52.670Z,6.55
2022-10-26T11:24:18.948Z,7.28
2022-10-26T11:26:48.912Z,2.88
2022-10-26T11:29:36.689Z,4.50
2022-10-26T11:32:09.086Z,6.07
2022-10-26T11:34:39.267Z,6.38
2022-10-26T11:37:11.114Z,4.38
2022-10-26T11:39:39.605Z,9.82
2022-10-26T11:42:26.183Z,7.30
2022-10-26T11:44:53.132Z,5.07
2022-10-26T11:47:22.543Z,6.25
2022-10-26T11:49:58.045Z,7.97
2022-10-26T11:52:28.123Z,5.75
2022-10-26T11:54:55.886Z,7.13
2022-10-26T11:57:23.280Z,4.40
2022-10-26T11:59:51.861Z,5.25
2022-10-26T12:02:19.945Z,6.95
2022-10-26T12:04:48.546Z,6.47
2022-10-26T12:07:21.943Z,4.65
2022-10-26T12:09:48.253Z,6.55
2022-10-26T12:12:19.911Z,4.00
2022-10-26T12:14:53.516Z,4.82
2022-10-26T12:17:26.340Z,8.00
2022-10-26T12:20:07.768Z,5.13
2022-10-26T12:22:36.693Z,5.80
2022-10-26T12:25:15.685Z,4.28
2022-10-26T12:27:42.140Z,4.20
2022-10-26T12:30:11.484Z,8.45
2022-10-26T12:32:40.273Z,8.00
2022-10-26T12:35:44.692Z,4.32
2022-10-26T12:38:33.032Z,3.63
2022-10-26T12:41:10.699Z,4.03
2022-10-26T12:43:38.702Z,2.85
2022-10-26T12:46:14.184Z,4.00
2022-10-26T12:48:47.654Z,4.57
2022-10-26T12:51:22.884Z,6.68
2022-10-26T12:53:52.106Z,5.35
2022-10-26T12:56:20.078Z,5.72
2022-10-26T12:58:52.323Z,5.32
2022-10-26T13:01:31.739Z,4.50
2022-10-26T13:03:58.203Z,5.20
2022-10-26T13:06:33.501Z,5.78
2022-10-26T13:09:06.473Z,6.07
2022-10-26T13:11:35.311Z,6.78
2022-10-26T13:14:03.208Z,7.43
2022-10-26T13:16:29.877Z,5.22
2022-10-26T13:18:56.644Z,4.93
2022-10-26T13:21:23.859Z,3.22
2022-10-26T13:23:53.174Z,8.40
2022-10-26T13:26:21.358Z,2.05
2022-10-26T13:28:49.343Z,5.13
2022-10-26T13:31:41.363Z,3.47
2022-10-26T13:36:44.384Z,6.00
2022-10-26T13:39:21.978Z,19.58
2022-10-26T13:41:51.121Z,33.80
2022-10-26T13:44:25.188Z,12.15
2022-10-26T13:46:55.949Z,23.10
2022-10-26T13:49:26.448Z,36.42
2022-10-26T13:51:53.432Z,16.13
2022-10-26T13:54:23.138Z,9.52
2022-10-26T13:56:52.438Z,57.95
2022-10-26T14:02:05.623Z,59.63
2022-10-26T14:04:31.977Z,9.63
2022-10-26T14:06:58.312Z,8.63
2022-10-26T14:09:24.914Z,19.42
2022-10-26T14:11:56.025Z,16.63
2022-10-26T14:14:24.233Z,8.30
2022-10-26T14:16:52.165Z,7.43
2022-10-26T14:19:24.601Z,2.03
2022-10-26T14:24:27.536Z,8.40
2022-10-26T14:27:02.240Z,4.00
2022-10-26T14:29:32.032Z,4.65
2022-10-26T14:31:58.496Z,5.45
2022-10-26T14:34:24.870Z,5.40
2022-10-26T14:37:04.727Z,6.38
2022-10-26T14:39:37.163Z,4.88
2022-10-26T14:44:30.024Z,3.60
2022-10-26T14:46:56.385Z,5.30
2022-10-26T14:49:24.336Z,5.47
2022-10-26T14:51:57.181Z,3.72
2022-10-26T14:54:25.341Z,3.22
2022-10-26T14:56:52.241Z,9.88
2022-10-26T14:59:26.428Z,8.38
2022-10-26T15:01:56.842Z,7.00
2022-10-26T15:04:27.963Z,8.43
2022-10-26T15:07:00.787Z,4.22
2022-10-26T15:09:38.109Z,7.43
2022-10-26T15:12:04.680Z,6.85
2022-10-26T15:14:31.325Z,3.10
2022-10-26T15:16:58.401Z,2.35
2022-10-26T15:19:25.616Z,4.57
2022-10-26T15:21:52.869Z,4.28
2022-10-26T15:24:35.913Z,6.32
2022-10-26T15:27:11.958Z,9.05
2022-10-26T15:29:41.403Z,11.13
2022-10-26T15:32:21.563Z,5.90
2022-10-26T15:35:06.691Z,8.25
2022-10-26T15:37:33.090Z,9.90
2022-10-26T15:39:59.849Z,8.48
2022-10-26T15:42:26.600Z,5.00
2022-10-26T15:44:53.075Z,6.38
2022-10-26T15:47:20.185Z,7.07
2022-10-26T15:49:47.136Z,8.98
2022-10-26T15:52:13.845Z,2.17
2022-10-26T15:54:40.360Z,2.88
2022-10-26T15:57:09.032Z,6.03
2022-10-26T15:59:35.369Z,5.82
2022-10-26T16:02:01.868Z,10.30
2022-10-26T16:04:28.327Z,8.55
2022-10-26T16:06:58.801Z,31.83
2022-10-26T16:09:25.104Z,20.92
2022-10-26T16:11:51.513Z,22.25
2022-10-26T16:14:17.849Z,13.35
2022-10-26T16:16:45.141Z,13.43
2022-10-26T16:19:25.912Z,10.73
2022-10-26T16:21:57.009Z,2.85
2022-10-26T16:24:23.488Z,5.93
2022-10-26T16:26:50.050Z,5.93
2022-10-26T16:29:16.394Z,3.75
2022-10-26T16:31:42.721Z,2.55
2022-10-26T16:34:09.074Z,3.60
2022-10-26T16:36:35.500Z,5.13
2022-10-26T16:41:29.082Z,5.75
2022-10-26T16:43:55.745Z,6.65
2022-10-26T16:46:22.163Z,5.00
2022-10-26T16:48:49.209Z,4.03
2022-10-26T16:51:20.711Z,3.75
2022-10-26T16:53:48.183Z,4.43
2022-10-26T16:56:16.352Z,5.45
2022-10-26T16:58:42.843Z,8.85
2022-10-26T17:01:10.298Z,6.43
2022-10-26T17:03:36.822Z,4.32
2022-10-26T17:06:04.569Z,6.50
2022-10-26T17:08:31.833Z,6.78
2022-10-26T17:11:02.174Z,10.95
2022-10-26T17:13:28.549Z,10.07
2022-10-26T17:15:54.925Z,5.95
2022-10-26T17:18:21.324Z,5.35
2022-10-26T17:20:51.055Z,6.95
2022-10-26T17:23:18.039Z,6.97
2022-10-26T17:25:44.705Z,4.72
2022-10-26T17:28:11.874Z,5.47
2022-10-26T17:30:38.392Z,9.10
2022-10-26T17:33:04.792Z,8.18
2022-10-26T17:35:32.276Z,7.43
2022-10-26T17:37:58.666Z,7.05
2022-10-26T17:40:25.041Z,8.40
2022-10-26T17:42:51.514Z,10.02
2022-10-26T17:45:17.916Z,7.05
2022-10-26T17:47:44.266Z,7.47
2022-10-26T17:50:11.169Z,7.93
2022-10-26T17:52:37.562Z,4.03
2022-10-26T17:55:04.024Z,3.63
2022-10-26T17:57:31.614Z,2.30
2022-10-26T17:59:57.945Z,4.80
2022-10-26T18:02:24.404Z,8.70
2022-10-26T18:04:50.800Z,3.83
2022-10-26T18:07:17.173Z,5.85
2022-10-26T18:09:43.541Z,5.25
2022-10-26T18:12:10.668Z,3.38
2022-10-26T18:14:37.081Z,7.05
2022-10-26T18:17:03.485Z,6.53
2022-10-26T18:19:29.946Z,18.75
2022-10-26T18:21:56.385Z,31.98
2022-10-26T18:24:22.846Z,41.50
2022-10-26T18:26:49.218Z,24.45
2022-10-26T18:29:15.593Z,20.52
2022-10-26T18:31:43.640Z,11.55
2022-10-26T18:34:10.014Z,9.25
2022-10-26T18:39:07.667Z,22.42
2022-10-26T18:41:34.187Z,8.13
2022-10-26T18:44:02.089Z,11.30
2022-10-26T18:46:29.890Z,19.95
2022-10-26T18:48:57.245Z,12.35
2022-10-26T18:51:25.273Z,17.23
2022-10-26T18:53:51.884Z,11.25
2022-10-26T18:56:19.493Z,12.00
2022-10-26T18:58:46.869Z,13.40
2022-10-26T19:01:15.041Z,11.93
2022-10-26T19:03:42.082Z,18.67
2022-10-26T19:06:08.430Z,13.32
2022-10-26T19:08:34.795Z,20.77
2022-10-26T19:11:02.250Z,17.98
2022-10-26T19:13:28.648Z,11.60
2022-10-26T19:16:01.967Z,12.52
2022-10-26T19:18:28.432Z,9.82
2022-10-26T19:20:59.373Z,6.90
2022-10-26T19:23:30.427Z,6.95
2022-10-26T19:25:56.837Z,14.95
2022-10-26T19:28:23.241Z,19.55
2022-10-26T19:30:49.686Z,21.23
2022-10-26T19:33:16.145Z,16.15
2022-10-26T19:35:42.563Z,10.50
2022-10-26T19:38:08.848Z,8.48
2022-10-26T19:40:35.238Z,7.30
2022-10-26T19:43:01.533Z,8.50
2022-10-26T19:45:28.044Z,11.60
2022-10-26T19:47:54.388Z,9.50
2022-10-26T19:50:20.689Z,11.02
2022-10-26T19:52:47.189Z,9.18
2022-10-26T19:55:13.729Z,14.43
2022-10-26T19:57:40.034Z,12.60
2022-10-26T20:00:07.550Z,10.93
2022-10-26T20:02:38.687Z,7.32
2022-10-26T20:05:05.245Z,11.30
2022-10-26T20:07:31.561Z,12.07
2022-10-26T20:09:57.888Z,16.42
2022-10-26T20:12:24.213Z,17.52
2022-10-26T20:14:50.546Z,14.65
2022-10-26T20:17:16.890Z,12.10
2022-10-26T20:19:43.200Z,9.10
2022-10-26T20:22:09.561Z,15.57
2022-10-26T20:24:35.864Z,10.73
2022-10-26T20:27:02.193Z,13.27
2022-10-26T20:29:29.562Z,17.77
2022-10-26T20:31:57.801Z,30.00
2022-10-26T20:34:24.284Z,19.15
2022-10-26T20:36:51.208Z,32.88
2022-10-26T20:39:17.813Z,22.60
2022-10-26T20:41:44.486Z,17.15
2022-10-26T20:44:16.013Z,10.23
2022-10-26T20:46:43.536Z,10.93
2022-10-26T20:49:10.052Z,18.05
2022-10-26T20:51:36.462Z,23.88
2022-10-26T20:54:17.741Z,13.45
2022-10-26T20:56:44.654Z,16.73
2022-10-26T20:59:18.430Z,9.55
2022-10-26T21:01:44.880Z,11.55
2022-10-26T21:04:11.332Z,9.70
2022-10-26T21:06:40.173Z,8.10
2022-10-26T21:09:07.238Z,7.00
2022-10-26T21:11:33.714Z,8.45
2022-10-26T21:14:00.889Z,10.82
2022-10-26T21:16:27.204Z,11.20
2022-10-26T21:18:53.548Z,11.30
2022-10-26T21:21:20.104Z,8.13
2022-10-26T21:23:46.559Z,10.00
2022-10-26T21:26:12.981Z,11.60
2022-10-26T21:28:41.508Z,11.15
2022-10-26T21:31:12.148Z,11.40
2022-10-26T21:33:38.973Z,8.23
2022-10-26T21:36:06.275Z,8.88
2022-10-26T21:38:32.992Z,7.07
2022-10-26T21:41:12.513Z,8.27
2022-10-26T21:43:39.840Z,8.63
2022-10-26T21:46:07.039Z,8.65
2022-10-26T21:48:34.316Z,11.50
2022-10-26T21:51:01.942Z,8.73
2022-10-26T21:53:28.476Z,14.10
2022-10-26T21:56:01.777Z,8.25
2022-10-26T21:58:28.964Z,8.13
2022-10-26T22:00:55.445Z,9.82
2022-10-26T22:03:21.782Z,8.70
2022-10-26T22:05:51.501Z,6.97
2022-10-26T22:08:17.816Z,11.80
2022-10-26T22:10:44.129Z,8.15
2022-10-26T22:13:10.492Z,10.55
2022-10-26T22:15:37.000Z,10.82
2022-10-26T22:18:03.492Z,10.57
2022-10-26T22:20:29.897Z,10.55
2022-10-26T22:22:56.331Z,8.32
2022-10-26T22:25:22.757Z,7.57
2022-10-26T22:27:49.283Z,12.48
2022-10-26T22:30:15.986Z,7.68
2022-10-26T22:32:42.391Z,7.70
2022-10-26T22:35:28.609Z,12.38
2022-10-26T22:37:55.268Z,9.60
2022-10-26T22:40:21.632Z,8.52
2022-10-26T22:42:50.593Z,10.32
2022-10-26T22:45:17.159Z,10.18
2022-10-26T22:47:43.475Z,9.82
2022-10-26T22:50:10.026Z,9.93
2022-10-26T22:52:36.357Z,7.50
2022-10-26T22:55:02.751Z,7.93
2022-10-26T22:57:29.158Z,8.63
2022-10-26T22:59:55.637Z,11.73
2022-10-26T23:02:22.000Z,10.23
2022-10-26T23:04:48.399Z,7.15
2022-10-26T23:07:14.731Z,5.57
2022-10-26T23:09:41.160Z,6.60
2022-10-26T23:12:07.519Z,7.25
2022-10-26T23:14:33.862Z,7.90
2022-10-26T23:17:03.722Z,6.63
2022-10-26T23:19:30.441Z,8.82
2022-10-26T23:21:56.910Z,7.30
2022-10-26T23:24:23.255Z,8.63
2022-10-26T23:26:49.668Z,5.32
2022-10-26T23:29:16.324Z,9.35
2022-10-26T23:31:42.637Z,7.22
2022-10-26T23:34:08.992Z,6.60
2022-10-26T23:36:35.306Z,9.27
2022-10-26T23:39:01.834Z,8.73
2022-10-26T23:41:28.869Z,7.03
2022-10-26T23:43:55.220Z,7.20
2022-10-26T23:46:21.625Z,6.90
2022-10-26T23:48:48.008Z,6.97
2022-10-26T23:51:14.429Z,7.88
2022-10-26T23:53:40.874Z,7.32
2022-10-26T23:56:07.425Z,6.38
2022-10-26T23:58:33.929Z,7.35
